Terminal Aerodrome Forecast
Issued by NWS Lake Charles, LA

Home | Current Version | Previous Version | Text Only | Print | Product List | Glossary On
Versions: 1 2 3 4 5 6 7 8 9 10 11 12 13 14 15 16
000
FTUS44 KLCH 231523 AAC
TAFBPT
TAF AMD
KBPT 231523Z 2315/2412 06006KT P6SM VCTS SCT025CB BKN070
      TEMPO 2315/2318 VRB15G30KT 2SM TSRA BKN025CB
     FM231800 14009KT P6SM VCTS SCT025CB SCT200
     FM240200 VRB03KT P6SM SCT250=

USA.gov is the U.S. government's official web portal to all federal, state and local government web resources and services.